Grayson, KY (41143)

7:01 AM EST on January 16, 2017 (GMT -0500)
Malone Funeral Home | | Change Station

Elev 663 ft 38.34 °N, 82.95 °W | Updated 21 seconds ago

Fog
Fog
38.7 °F
Feels Like 39 °F
N
0.0
Wind Variable Wind from ESE

Today
High -- | Low -- °F
--% Chance of Precip.
Yesterday
High -- | Low -- °F
Precip. -- in
Pressure 30.31 in
Visibility 1.5 miles
Clouds Overcast 300 ft
Windchill 39 °F
Dew Point 38 °F
Humidity 98%
Rainfall 0.00 in
Snow Depth Not available.
7:46 AM 5:36 PM
Waning Gibbous, 81% visible
METAR KHTS 161151Z 00000KT 1 1/2SM BR OVC003 04/03 A3030 RMK AO2 SLP263 70013 T00440033 10044 20039 55001
Pressure 30.31 in
Visibility 1.5 miles
Clouds Overcast 300 ft
Windchill 39 °F
Dew Point 38 °F
Humidity 98%
Rainfall 0.00 in
Snow Depth Not available.
7:46 AM 5:36 PM
Waning Gibbous, 81% visible
METAR KHTS 161151Z 00000KT 1 1/2SM BR OVC003 04/03 A3030 RMK AO2 SLP263 70013 T00440033 10044 20039 55001

Get Your Daily Forecast Email!

Thanks for signing up!

Be on the lookout for a verification email in your inbox.

You'll start receiving the daily forecast at 8 AM.

×

10-Day Weather Forecast

Almanac

Astronomy

Jan. 16, 2017 Rise Set
Actual Time
Civil Twilight
Nautical Twilight
Astronomical Twilight
Moon
Length of Visible Light
Length of Day
Tomorrow will be .
, % of the Moon is Illuminated

Today's Extremes

State Highs State Lows

Community

WunderPhotos

Upload Photos

1,962,540 photos uploaded!

WunderBlog® & News

Nearby

Air Quality

  Air Quality AQ Index Pollutant
Not available.

Snow Depth

Station Depth Elevation

Earthquake Activity

City Distance Mag. Time & Date
Minimum magnitude displayed is 2.5.

Coastal Water Temperatures

Place Temperature

Stations

Nearby Weather Stations

Station Location Temp. Windchill Dew Point Humidity Wind Precip. Elev Updated Type
                   

Watches & Warnings

There are currently no watches in effect.